Time;durP1;ratioP1;P1;durP2;ratioP2;P2;SDS_P1;SDS_P2;PMS_P1;PMS_P2;Temp;Humidity;BMP_temperature;BMP_pressure;BME280_temperature;BME280_humidity;BME280_pressure;Samples;Min_cycle;Max_cycle;Signal;HPM_P1;HPM_P2
2023/10/04 00:01:51;;;;;;;15.50;6.80;;;;;;;15.42;90.80;101235.83;105754;1257;68687;-88
2023/10/04 00:04:19;;;;;;;18.10;5.80;;;;;;;15.40;90.76;101239.35;106766;1259;73203;-88
2023/10/04 00:06:47;;;;;;;16.70;5.80;;;;;;;15.42;90.21;101230.24;105860;1261;61271;-87
2023/10/04 00:09:14;;;;;;;15.10;5.80;;;;;;;15.44;89.77;101225.71;105792;1257;61400;-87
2023/10/04 00:11:42;;;;;;;15.20;6.70;;;;;;;15.41;89.68;101218.98;105852;1259;74689;-85
2023/10/04 00:14:10;;;;;;;19.70;6.70;;;;;;;15.38;89.55;101213.45;105967;1257;67125;-87
2023/10/04 00:16:38;;;;;;;12.90;5.90;;;;;;;15.38;89.27;101210.91;106874;1257;72642;-86
2023/10/04 00:19:06;;;;;;;16.40;6.10;;;;;;;15.36;89.28;101211.36;105825;1259;61394;-88
2023/10/04 00:21:33;;;;;;;14.40;6.20;;;;;;;15.35;89.07;101210.50;105909;1258;61532;-86
2023/10/04 00:24:01;;;;;;;16.70;7.20;;;;;;;15.35;88.69;101205.60;105916;1263;74638;-86
2023/10/04 00:26:30;;;;;;;12.80;5.70;;;;;;;15.33;88.45;101200.56;105906;1257;68411;-88
2023/10/04 00:28:58;;;;;;;16.10;6.50;;;;;;;15.30;88.19;101200.88;105838;1257;71186;-85
2023/10/04 00:31:25;;;;;;;12.50;6.00;;;;;;;15.29;87.95;101195.15;106647;1259;61692;-87
2023/10/04 00:33:53;;;;;;;11.00;5.50;;;;;;;15.21;88.32;101190.84;105903;1257;61311;-87
2023/10/04 00:36:22;;;;;;;16.40;7.20;;;;;;;15.17;88.37;101189.90;105799;1260;73124;-86
2023/10/04 00:38:50;;;;;;;14.00;5.70;;;;;;;15.12;88.26;101189.34;105870;1260;67205;-87
2023/10/04 00:41:19;;;;;;;14.40;6.10;;;;;;;15.05;88.57;101187.11;105935;1258;72689;-87
2023/10/04 00:43:51;;;;;;;13.80;5.60;;;;;;;15.01;88.66;101184.79;106570;1259;61318;-88
2023/10/04 00:46:20;;;;;;;16.40;6.60;;;;;;;15.01;88.40;101185.98;105828;1258;61270;-87
2023/10/04 00:48:54;;;;;;;17.70;6.00;;;;;;;14.96;88.72;101180.81;105864;1257;73364;-86
2023/10/04 00:51:22;;;;;;;12.90;5.80;;;;;;;14.86;89.09;101179.00;105913;1261;68557;-86
2023/10/04 00:53:51;;;;;;;15.00;6.00;;;;;;;14.88;88.95;101177.86;105859;1260;72724;-87
2023/10/04 00:56:19;;;;;;;17.40;6.70;;;;;;;14.86;88.85;101172.38;106839;1264;62213;-88
2023/10/04 00:58:47;;;;;;;20.60;7.10;;;;;;;14.80;88.82;101173.70;105762;1259;61278;-85
2023/10/04 01:01:15;;;;;;;20.00;7.60;;;;;;;14.81;88.66;101168.53;105825;1260;74617;-88
2023/10/04 01:03:45;;;;;;;18.30;7.00;;;;;;;14.79;88.55;101168.61;105803;1260;68456;-88
2023/10/04 01:06:14;;;;;;;16.30;6.60;;;;;;;14.74;88.45;101172.17;105919;1259;72675;-86
2023/10/04 01:08:42;;;;;;;16.70;6.20;;;;;;;14.70;88.45;101169.02;107092;1260;60461;-85
2023/10/04 01:11:10;;;;;;;18.10;6.60;;;;;;;14.66;88.31;101165.21;105739;1260;61805;-88
2023/10/04 01:13:39;;;;;;;14.80;6.70;;;;;;;14.68;88.22;101162.66;105798;1260;73417;-88
2023/10/04 01:16:09;;;;;;;14.30;6.20;;;;;;;14.63;88.23;101165.02;105893;1264;67162;-88
2023/10/04 01:18:38;;;;;;;20.00;7.10;;;;;;;14.59;88.48;101164.17;105757;1264;72632;-88
2023/10/04 01:21:07;;;;;;;20.10;7.00;;;;;;;14.54;88.61;101163.77;106664;1260;61711;-85
2023/10/04 01:23:39;;;;;;;18.80;7.60;;;;;;;14.56;88.09;101160.78;105900;1260;61310;-85
2023/10/04 01:26:09;;;;;;;18.70;8.00;;;;;;;14.51;88.09;101162.57;105826;1260;74458;-88
2023/10/04 01:28:39;;;;;;;20.00;8.50;;;;;;;14.47;88.21;101157.70;105792;1263;67619;-86
2023/10/04 01:31:07;;;;;;;14.60;7.50;;;;;;;14.43;88.65;101162.09;105860;1260;72105;-87
2023/10/04 01:33:35;;;;;;;19.70;8.00;;;;;;;14.42;88.78;101158.84;106588;1260;61667;-87
2023/10/04 01:36:03;;;;;;;18.80;7.40;;;;;;;14.38;88.74;101159.64;105806;1260;61418;-86
2023/10/04 01:38:32;;;;;;;14.80;6.20;;;;;;;14.37;88.66;101157.79;105765;1261;74706;-86
2023/10/04 01:41:00;;;;;;;14.90;6.20;;;;;;;14.36;88.52;101156.20;105904;1264;67530;-87
2023/10/04 01:43:27;;;;;;;17.90;6.70;;;;;;;14.29;88.92;101157.90;105888;1259;71438;-87
2023/10/04 01:46:00;;;;;;;17.00;7.00;;;;;;;14.27;89.09;101158.58;105846;1260;61250;-86
2023/10/04 01:48:34;;;;;;;15.30;6.70;;;;;;;14.22;89.26;101156.96;106448;1259;61254;-87
2023/10/04 01:51:04;;;;;;;17.10;6.80;;;;;;;14.18;89.32;101153.42;105904;1263;74651;-87
2023/10/04 01:53:35;;;;;;;14.70;6.00;;;;;;;14.14;89.45;101152.19;105934;1260;68650;-86
2023/10/04 01:56:05;;;;;;;12.80;5.80;;;;;;;14.11;89.44;101152.44;105722;1259;73239;-87
2023/10/04 01:58:37;;;;;;;17.10;6.40;;;;;;;14.13;89.04;101150.70;105780;1265;61603;-85
2023/10/04 02:01:09;;;;;;;17.00;6.80;;;;;;;14.06;89.25;101155.27;106759;1258;61470;-87
2023/10/04 02:03:37;;;;;;;13.60;6.20;;;;;;;14.01;89.44;101153.43;105819;1260;72398;-85
2023/10/04 02:06:08;;;;;;;14.30;6.70;;;;;;;13.94;89.88;101152.06;105929;1260;68483;-85
2023/10/04 02:08:36;;;;;;;16.40;6.70;;;;;;;13.87;90.43;101150.23;105819;1260;71499;-86
2023/10/04 02:11:05;;;;;;;23.10;8.20;;;;;;;13.84;90.70;101150.25;105871;1260;61358;-87
2023/10/04 02:13:35;;;;;;;21.90;8.30;;;;;;;13.77;90.90;101152.48;106535;1259;61314;-87
2023/10/04 02:16:05;;;;;;;18.80;8.40;;;;;;;13.76;90.83;101154.20;105780;1258;73397;-86
2023/10/04 02:18:33;;;;;;;16.70;7.90;;;;;;;13.75;90.43;101156.17;105802;1260;68374;-86
2023/10/04 02:21:01;;;;;;;18.50;7.30;;;;;;;13.71;90.38;101153.95;105815;1260;71578;-86
2023/10/04 02:23:29;;;;;;;14.40;7.10;;;;;;;13.67;90.50;101152.70;105804;1259;61276;-86
2023/10/04 02:25:57;;;;;;;14.60;6.80;;;;;;;13.60;90.56;101151.98;106908;1258;61187;-86
2023/10/04 02:28:25;;;;;;;14.40;6.10;;;;;;;13.57;90.52;101151.55;105878;1260;73459;-86
2023/10/04 02:30:56;;;;;;;14.50;6.50;;;;;;;13.51;90.22;101150.31;105942;1264;67650;-87
2023/10/04 02:33:32;;;;;;;12.30;5.50;;;;;;;13.43;90.20;101149.92;105789;1263;71138;-86
2023/10/04 02:36:01;;;;;;;12.20;5.80;;;;;;;13.36;89.79;101154.13;105889;1262;61670;-87
2023/10/04 02:38:33;;;;;;;16.50;6.50;;;;;;;13.26;89.37;101148.75;105754;1260;61355;-86
2023/10/04 02:41:05;;;;;;;20.30;6.30;;;;;;;13.15;89.45;101151.42;106534;1260;74659;-85
2023/10/04 02:43:35;;;;;;;12.40;6.60;;;;;;;13.03;89.95;101146.02;105690;1266;68196;-86
2023/10/04 02:46:03;;;;;;;14.20;6.20;;;;;;;12.94;90.58;101146.31;105807;1260;72421;-86
2023/10/04 02:48:32;;;;;;;12.60;6.10;;;;;;;12.89;91.18;101142.66;105880;1262;61710;-87
2023/10/04 02:51:04;;;;;;;16.50;6.80;;;;;;;12.84;91.57;101138.34;106476;1259;62073;-87
2023/10/04 02:53:32;;;;;;;14.70;7.10;;;;;;;12.81;91.74;101134.45;105763;1259;73443;-86
2023/10/04 02:56:09;;;;;;;17.80;7.90;;;;;;;12.75;92.17;101130.79;105934;1260;69346;-87
2023/10/04 02:58:41;;;;;;;16.90;7.20;;;;;;;12.73;92.33;101130.35;105816;1262;73117;-87
2023/10/04 03:01:17;;;;;;;17.50;8.60;;;;;;;12.71;92.87;101129.31;105834;1260;61793;-87
2023/10/04 03:03:46;;;;;;;16.70;7.90;;;;;;;12.71;93.23;101123.89;105988;1264;61860;-87
2023/10/04 03:06:14;;;;;;;15.70;7.90;;;;;;;12.67;93.62;101125.43;105779;1260;74674;-87
2023/10/04 03:08:42;;;;;;;16.20;8.40;;;;;;;12.62;94.23;101120.66;105856;1262;67389;-87
2023/10/04 03:11:11;;;;;;;15.70;7.70;;;;;;;12.64;94.32;101119.95;105956;1259;72676;-88
2023/10/04 03:13:40;;;;;;;16.90;7.60;;;;;;;12.62;94.76;101117.70;106457;1259;61723;-88
2023/10/04 03:16:09;;;;;;;15.90;6.80;;;;;;;12.64;95.01;101117.65;105755;1264;61282;-86
2023/10/04 03:18:39;;;;;;;15.00;6.30;;;;;;;12.63;95.61;101113.09;105867;1259;74762;-88
2023/10/04 03:21:10;;;;;;;12.10;5.50;;;;;;;12.61;96.24;101106.52;105756;1265;68767;-88
2023/10/04 03:23:41;;;;;;;17.10;7.30;;;;;;;12.63;96.56;101103.66;105884;1261;72756;-88
2023/10/04 03:26:14;;;;;;;14.40;6.70;;;;;;;12.66;96.71;101102.94;106466;1259;61317;-88
2023/10/04 03:28:46;;;;;;;16.40;6.50;;;;;;;12.67;96.95;101105.46;105976;1259;61204;-88
2023/10/04 03:31:14;;;;;;;19.90;6.30;;;;;;;12.69;97.29;101104.26;105802;1264;74665;-87
2023/10/04 03:33:46;;;;;;;16.00;6.60;;;;;;;12.68;97.76;101100.92;105807;1259;68379;-86
2023/10/04 03:36:18;;;;;;;17.00;6.10;;;;;;;12.76;97.61;101094.76;106429;1260;72361;-86
2023/10/04 03:38:50;;;;;;;17.60;6.40;;;;;;;12.79;98.05;101092.27;105824;1260;61355;-87
2023/10/04 03:41:19;;;;;;;16.70;6.70;;;;;;;12.85;98.68;101087.37;105959;1260;61313;-87
2023/10/04 03:43:48;;;;;;;17.90;6.40;;;;;;;12.94;99.05;101089.16;105835;1263;74844;-87
2023/10/04 03:46:17;;;;;;;15.00;6.40;;;;;;;13.01;99.27;101087.43;105768;1259;68503;-87
2023/10/04 03:48:48;;;;;;;17.30;6.50;;;;;;;13.09;99.19;101087.17;106429;1263;72701;-86
2023/10/04 03:51:20;;;;;;;18.50;7.10;;;;;;;13.22;98.71;101084.38;105822;1260;61959;-88
2023/10/04 03:53:53;;;;;;;16.40;6.70;;;;;;;13.25;98.91;101083.83;105862;1260;61360;-88
2023/10/04 03:56:25;;;;;;;14.80;6.40;;;;;;;13.34;98.91;101081.22;105910;1265;74943;-88
2023/10/04 03:58:54;;;;;;;18.00;6.70;;;;;;;13.42;98.13;101079.81;105901;1260;67594;-87
2023/10/04 04:01:25;;;;;;;19.70;7.60;;;;;;;13.42;98.03;101083.10;106471;1261;72532;-88
2023/10/04 04:03:53;;;;;;;16.10;7.00;;;;;;;13.42;98.04;101084.42;105627;1265;61298;-88
2023/10/04 04:06:22;;;;;;;17.60;6.80;;;;;;;13.47;97.65;101091.26;105790;1265;61271;-87
2023/10/04 04:08:50;;;;;;;20.50;6.80;;;;;;;13.53;97.24;101091.55;105895;1261;74697;-86
2023/10/04 04:11:18;;;;;;;15.30;5.90;;;;;;;13.57;97.06;101088.17;105683;1260;68817;-86
2023/10/04 04:13:46;;;;;;;15.70;6.10;;;;;;;13.62;96.87;101091.66;106377;1259;71474;-87
2023/10/04 04:16:17;;;;;;;15.90;6.90;;;;;;;13.65;96.50;101089.55;105629;1260;61300;-86
2023/10/04 04:18:51;;;;;;;14.40;6.00;;;;;;;13.69;96.04;101094.02;105745;1260;61170;-86
2023/10/04 04:21:19;;;;;;;20.60;6.40;;;;;;;13.72;95.83;101096.81;105778;1260;73793;-86
2023/10/04 04:23:47;;;;;;;64.30;11.60;;;;;;;13.75;95.70;101096.75;105923;1259;68456;-88
2023/10/04 04:26:16;;;;;;;41.70;8.30;;;;;;;13.75;95.87;101099.33;106485;1258;72670;-88
2023/10/04 04:28:44;;;;;;;68.60;11.50;;;;;;;13.81;95.72;101097.20;105988;1260;61449;-86
2023/10/04 04:31:19;;;;;;;30.60;8.00;;;;;;;13.83;96.17;101095.48;105848;1260;61305;-87
2023/10/04 04:33:47;;;;;;;15.70;7.50;;;;;;;13.85;96.65;101097.77;105761;1260;74670;-87
2023/10/04 04:36:26;;;;;;;19.80;6.60;;;;;;;13.98;96.27;101097.84;106160;1259;68462;-87
2023/10/04 04:39:05;;;;;;;16.70;6.20;;;;;;;14.12;95.93;101097.73;105871;1260;71381;-88
2023/10/04 04:41:38;;;;;;;14.50;5.70;;;;;;;14.20;95.94;101100.73;105765;1265;61863;-88
2023/10/04 04:44:10;;;;;;;21.30;6.70;;;;;;;14.31;95.52;101099.71;105699;1259;61366;-88
2023/10/04 04:46:43;;;;;;;18.20;5.70;;;;;;;14.42;95.15;101097.25;105755;1260;72732;-87
2023/10/04 04:49:12;;;;;;;18.30;6.50;;;;;;;14.50;95.00;101101.85;105823;1260;68735;-89
2023/10/04 04:51:39;;;;;;;19.50;7.00;;;;;;;14.59;94.99;101104.33;106232;1263;71428;-89
2023/10/04 04:54:07;;;;;;;18.00;6.70;;;;;;;14.67;95.05;101104.85;105702;1260;62886;-88
2023/10/04 04:56:35;;;;;;;17.00;6.30;;;;;;;14.74;95.32;101108.63;105708;1265;59277;-89
2023/10/04 04:59:07;;;;;;;13.90;5.60;;;;;;;14.90;94.92;101111.75;105824;1260;73394;-87
2023/10/04 05:01:39;;;;;;;25.40;7.40;;;;;;;15.06;94.66;101105.85;105998;1260;67232;-88
2023/10/04 05:04:08;;;;;;;16.00;6.60;;;;;;;15.22;94.06;101101.75;106437;1260;73488;-87
2023/10/04 05:06:38;;;;;;;19.60;6.90;;;;;;;15.32;93.78;101101.61;105858;1260;61777;-88
2023/10/04 05:09:06;;;;;;;17.80;6.50;;;;;;;15.59;92.62;101105.21;106001;1257;61296;-88
2023/10/04 05:11:36;;;;;;;18.90;6.40;;;;;;;15.78;91.55;101101.00;105718;1265;74767;-87
2023/10/04 05:14:09;;;;;;;16.50;7.30;;;;;;;15.93;90.93;101100.59;105761;1264;67101;-86
2023/10/04 05:16:37;;;;;;;22.00;6.30;;;;;;;16.03;90.63;101101.19;106475;1259;71616;-88
2023/10/04 05:19:08;;;;;;;14.10;5.60;;;;;;;16.20;89.92;101098.13;105855;1259;61316;-89
2023/10/04 05:21:37;;;;;;;22.10;6.60;;;;;;;16.40;88.61;101092.23;105890;1260;61359;-89
2023/10/04 05:24:05;;;;;;;16.80;6.40;;;;;;;16.59;87.28;101097.95;105749;1260;74739;-88
2023/10/04 05:26:35;;;;;;;15.50;5.90;;;;;;;16.65;86.82;101099.59;105788;1260;68672;-90
2023/10/04 05:29:03;;;;;;;18.80;6.30;;;;;;;16.85;85.42;101099.64;106498;1260;72708;-90
2023/10/04 05:31:34;;;;;;;17.50;6.50;;;;;;;17.02;84.62;101105.04;106057;1265;62266;-88
2023/10/04 05:34:02;;;;;;;20.00;6.20;;;;;;;17.28;83.08;101099.71;105847;1261;61304;-88
2023/10/04 05:36:30;;;;;;;19.70;7.00;;;;;;;17.47;81.72;101103.28;105984;1260;74709;-88
2023/10/04 05:39:01;;;;;;;17.30;6.40;;;;;;;17.67;80.08;101102.98;106202;1260;68315;-88
2023/10/04 05:41:31;;;;;;;16.20;5.70;;;;;;;17.85;78.93;101101.17;106054;1265;71215;-87
2023/10/04 05:43:59;;;;;;;17.50;6.40;;;;;;;18.06;77.29;101093.41;105762;1260;61269;-88
2023/10/04 05:46:28;;;;;;;17.30;6.00;;;;;;;18.23;75.76;101094.83;106063;1260;61270;-88
2023/10/04 05:48:56;;;;;;;19.70;6.60;;;;;;;18.43;74.22;101095.08;105937;1265;74764;-88
2023/10/04 05:51:24;;;;;;;18.20;6.00;;;;;;;18.63;72.70;101098.38;106969;1263;68371;-89
2023/10/04 05:53:53;;;;;;;17.20;5.40;;;;;;;18.82;70.56;101102.46;106038;1260;72524;-87
2023/10/04 05:56:23;;;;;;;18.30;6.40;;;;;;;19.07;68.38;101102.27;106030;1260;61334;-88
2023/10/04 05:58:50;;;;;;;18.70;6.80;;;;;;;19.31;65.67;101100.64;105857;1260;59688;-88
2023/10/04 06:01:19;;;;;;;18.90;6.10;;;;;;;19.49;64.21;101096.27;105936;1260;74797;-87
2023/10/04 06:03:47;;;;;;;18.70;6.40;;;;;;;19.66;62.56;101093.05;105962;1262;67107;-87
2023/10/04 06:06:15;;;;;;;18.70;6.00;;;;;;;19.84;60.71;101087.38;106393;1260;75640;-88
2023/10/04 06:08:45;;;;;;;14.50;6.10;;;;;;;20.01;59.34;101086.56;105850;1260;61323;-88
2023/10/04 06:11:14;;;;;;;14.80;5.70;;;;;;;20.10;59.51;101078.98;105926;1260;61233;-88
2023/10/04 06:13:42;;;;;;;14.40;6.50;;;;;;;20.27;59.08;101075.60;106114;1264;74783;-86
2023/10/04 06:16:09;;;;;;;14.70;5.70;;;;;;;20.44;58.11;101062.91;106177;1260;67287;-86
2023/10/04 06:18:37;;;;;;;14.70;6.20;;;;;;;20.65;57.34;101060.88;105769;1262;72676;-86
2023/10/04 06:21:05;;;;;;;15.60;6.20;;;;;;;20.80;56.38;101054.15;105834;1260;61404;-86
2023/10/04 06:23:33;;;;;;;15.70;6.00;;;;;;;21.01;55.42;101053.25;106085;1261;60041;-86
2023/10/04 06:26:01;;;;;;;17.10;5.50;;;;;;;21.25;54.70;101052.74;106016;1262;75063;-86
2023/10/04 06:28:29;;;;;;;25.50;6.70;;;;;;;21.45;53.66;101047.83;105923;1263;67430;-86
2023/10/04 06:30:57;;;;;;;16.80;5.70;;;;;;;21.62;52.70;101042.75;107248;1258;72693;-86
2023/10/04 06:33:25;;;;;;;15.40;6.30;;;;;;;21.73;52.19;101039.91;106063;1260;61275;-86
2023/10/04 06:35:53;;;;;;;29.70;6.80;;;;;;;21.91;51.89;101035.09;105903;1260;61259;-86
2023/10/04 06:38:21;;;;;;;14.80;5.80;;;;;;;22.03;50.87;101029.48;105849;1260;74655;-85
2023/10/04 06:40:49;;;;;;;15.10;5.90;;;;;;;22.12;49.76;101033.06;105904;1263;68340;-87
2023/10/04 06:43:18;;;;;;;17.00;6.20;;;;;;;22.18;48.61;101032.29;106415;1259;73052;-86
2023/10/04 06:45:45;;;;;;;23.20;5.70;;;;;;;22.33;48.64;101033.73;105968;1262;61170;-86
2023/10/04 06:48:14;;;;;;;14.50;5.80;;;;;;;22.46;48.15;101029.72;106030;1260;61249;-86
2023/10/04 06:50:44;;;;;;;16.50;5.70;;;;;;;22.61;47.95;101022.33;105961;1257;74000;-86
2023/10/04 06:53:12;;;;;;;20.10;6.30;;;;;;;22.81;47.31;101016.40;105973;1263;68689;-86
2023/10/04 06:55:41;;;;;;;13.70;5.50;;;;;;;22.98;46.82;101015.52;106023;1263;72480;-86
2023/10/04 06:58:10;;;;;;;17.30;6.50;;;;;;;23.14;46.19;101012.52;106738;1258;61348;-87
2023/10/04 07:00:40;;;;;;;16.00;5.00;;;;;;;23.29;45.96;101013.27;106057;1259;61222;-86
2023/10/04 07:03:10;;;;;;;17.70;5.30;;;;;;;23.46;45.69;101009.09;105842;1265;75092;-86
2023/10/04 07:05:40;;;;;;;15.40;5.90;;;;;;;23.60;44.73;101011.24;105985;1257;71562;-88
2023/10/04 07:08:11;;;;;;;14.20;5.60;;;;;;;23.68;44.60;101012.42;106129;1264;72716;-86
2023/10/04 07:10:39;;;;;;;15.70;5.60;;;;;;;23.78;44.27;101010.92;106542;1260;61355;-87
2023/10/04 07:13:07;;;;;;;12.10;5.20;;;;;;;23.92;43.76;101010.90;105980;1257;61167;-88
2023/10/04 07:15:35;;;;;;;16.50;5.60;;;;;;;24.06;43.44;101003.85;105927;1260;74730;-87
2023/10/04 07:18:09;;;;;;;14.90;5.50;;;;;;;24.22;43.19;100997.10;105924;1260;68407;-86
2023/10/04 07:20:39;;;;;;;14.80;4.90;;;;;;;24.37;42.57;100991.91;106059;1257;74822;-86
2023/10/04 07:23:09;;;;;;;17.80;5.50;;;;;;;24.55;42.40;100976.96;105928;1263;61282;-87
2023/10/04 07:25:47;;;;;;;13.70;5.20;;;;;;;24.73;41.92;100975.31;106610;1257;60036;-87
2023/10/04 07:28:15;;;;;;;13.70;5.10;;;;;;;24.82;41.36;100964.19;106097;1265;64515;-87
2023/10/04 07:30:43;;;;;;;13.40;5.30;;;;;;;24.92;41.28;100961.48;106041;1258;61348;-86
2023/10/04 07:33:12;;;;;;;11.60;4.80;;;;;;;25.03;40.81;100955.96;105992;1260;71907;-88
2023/10/04 07:35:40;;;;;;;15.00;5.50;;;;;;;25.18;40.26;100946.25;106255;1260;62374;-87
2023/10/04 07:38:08;;;;;;;19.40;5.50;;;;;;;25.29;39.76;100940.33;106056;1260;61338;-87
2023/10/04 07:40:36;;;;;;;14.40;5.30;;;;;;;25.38;39.75;100934.59;106017;1257;64958;-86
2023/10/04 07:43:04;;;;;;;16.00;5.40;;;;;;;25.45;39.41;100936.17;106108;1257;61873;-86
2023/10/04 07:45:32;;;;;;;23.30;6.00;;;;;;;25.49;39.29;100934.75;106012;1261;65889;-87
2023/10/04 07:48:01;;;;;;;18.70;5.80;;;;;;;25.56;39.31;100932.40;106238;1260;61162;-87
2023/10/04 07:50:29;;;;;;;15.20;5.20;;;;;;;25.68;39.09;100936.54;106260;1260;61145;-87
2023/10/04 07:53:04;;;;;;;11.20;4.40;;;;;;;25.90;38.83;100935.21;105869;1263;65743;-87
2023/10/04 07:55:33;;;;;;;14.60;5.30;;;;;;;26.08;38.06;100934.11;106200;1260;61380;-87
2023/10/04 07:58:03;;;;;;;16.70;5.20;;;;;;;26.25;37.95;100929.91;105998;1260;63826;-88
2023/10/04 08:00:35;;;;;;;16.60;5.20;;;;;;;26.44;37.51;100925.41;106794;1259;61304;-89
2023/10/04 08:03:04;;;;;;;14.00;5.20;;;;;;;26.59;37.35;100921.82;105811;1265;61147;-88
2023/10/04 08:05:32;;;;;;;13.20;4.60;;;;;;;26.71;37.07;100921.05;105918;1260;64736;-88
2023/10/04 08:08:02;;;;;;;19.60;4.80;;;;;;;26.75;36.93;100921.42;106184;1263;61359;-88
2023/10/04 08:10:36;;;;;;;17.20;5.00;;;;;;;26.93;36.64;100923.02;106011;1263;63764;-88
2023/10/04 08:13:04;;;;;;;;;;;;;;;27.18;36.27;100923.21;106671;1258;61321;-87
2023/10/04 08:15:36;;;;;;;11.70;5.20;;;;;;;27.39;35.34;100926.55;106095;1260;61321;-88
2023/10/04 08:18:05;;;;;;;13.30;5.20;;;;;;;27.38;35.33;100926.04;106076;1264;76788;-88
2023/10/04 08:20:33;;;;;;;13.10;4.90;;;;;;;27.43;35.30;100920.97;106006;1264;61244;-87
2023/10/04 08:23:02;;;;;;;16.50;5.60;;;;;;;27.54;35.70;100917.16;105716;1266;225260;-87
2023/10/04 08:25:32;;;;;;;14.40;5.20;;;;;;;27.68;35.49;100913.21;106655;1263;61281;-88
2023/10/04 08:28:01;;;;;;;12.60;4.90;;;;;;;27.77;34.60;100905.36;105647;1259;61339;-87
2023/10/04 08:30:30;;;;;;;13.40;5.10;;;;;;;27.75;34.16;100897.80;105948;1261;68750;-87
2023/10/04 08:32:59;;;;;;;14.10;4.40;;;;;;;27.73;34.32;100897.40;105959;1264;63642;-88
2023/10/04 08:35:28;;;;;;;15.60;4.40;;;;;;;27.79;34.33;100903.09;106128;1274;65936;-87
2023/10/04 08:37:58;;;;;;;15.00;4.90;;;;;;;27.85;34.05;100910.69;106346;1260;61345;-88
2023/10/04 08:40:27;;;;;;;17.60;5.20;;;;;;;27.93;34.07;100911.31;106031;1260;61273;-88
2023/10/04 08:42:57;;;;;;;14.70;4.70;;;;;;;28.07;33.75;100909.36;105982;1258;67774;-88
2023/10/04 08:45:30;;;;;;;20.20;5.40;;;;;;;28.19;33.64;100910.02;106191;1263;63344;-90
2023/10/04 08:47:58;;;;;;;13.00;5.10;;;;;;;28.23;33.53;100912.16;106404;1263;73451;-88
2023/10/04 08:50:31;;;;;;;13.40;5.50;;;;;;;28.30;33.56;100917.98;106416;1265;61269;-89
2023/10/04 08:53:10;;;;;;;14.70;5.00;;;;;;;28.40;33.64;100917.98;105928;1264;61307;-88
2023/10/04 08:55:41;;;;;;;12.90;5.00;;;;;;;28.60;33.44;100919.19;105872;1263;69245;-88
2023/10/04 08:58:10;;;;;;;15.00;4.90;;;;;;;28.77;32.92;100914.64;106054;1259;63383;-89
2023/10/04 09:00:43;;;;;;;9.30;4.40;;;;;;;28.89;32.43;100913.58;105934;1266;64608;-87
2023/10/04 09:03:12;;;;;;;14.10;5.00;;;;;;;28.88;32.54;100912.44;106182;1260;61340;-89
2023/10/04 09:05:46;;;;;;;10.40;4.60;;;;;;;28.99;32.20;100913.48;105919;1263;61369;-89
2023/10/04 09:08:16;;;;;;;13.20;4.50;;;;;;;29.07;32.37;100907.73;106003;1265;69360;-89
2023/10/04 09:10:44;;;;;;;14.50;4.80;;;;;;;29.17;32.12;100905.77;106101;1257;61374;-89
2023/10/04 09:13:30;;;;;;;13.90;4.50;;;;;;;29.21;31.96;100901.53;106279;1263;66139;-89
2023/10/04 09:16:16;;;;;;;10.20;4.30;;;;;;;29.22;31.89;100899.45;105934;1265;61269;-89
2023/10/04 09:18:44;;;;;;;11.40;4.70;;;;;;;29.37;31.47;100902.63;105961;1257;61266;-89
2023/10/04 09:21:15;;;;;;;9.80;4.40;;;;;;;29.49;31.60;100902.59;105943;1258;67866;-89
2023/10/04 09:23:46;;;;;;;10.30;4.30;;;;;;;29.58;31.51;100901.31;105953;1264;61799;-89
2023/10/04 09:26:16;;;;;;;9.30;4.40;;;;;;;29.67;31.36;100896.52;106600;1264;65911;-89
2023/10/04 09:28:43;;;;;;;15.00;4.10;;;;;;;29.78;31.03;100893.34;105989;1264;61358;-88
2023/10/04 09:31:12;;;;;;;11.00;4.20;;;;;;;29.81;31.23;100890.61;105686;1266;61337;-88
2023/10/04 09:33:41;;;;;;;11.90;4.60;;;;;;;29.85;31.40;100886.73;105920;1264;69308;-89
2023/10/04 09:36:13;;;;;;;10.50;4.60;;;;;;;30.02;31.39;100886.27;105984;1263;62311;-89
2023/10/04 09:38:41;;;;;;;12.70;4.20;;;;;;;30.17;31.06;100885.70;105955;1264;65008;-89
2023/10/04 09:41:10;;;;;;;11.80;4.40;;;;;;;30.25;30.93;100891.02;106817;1264;61238;-89
2023/10/04 09:43:39;;;;;;;16.10;4.70;;;;;;;30.37;30.54;100890.94;105955;1260;61352;-89
2023/10/04 09:46:12;;;;;;;14.00;4.80;;;;;;;30.52;30.38;100895.19;105945;1263;68205;-88
2023/10/04 09:48:46;;;;;;;11.30;4.50;;;;;;;30.61;30.30;100909.92;106038;1262;63682;-89
2023/10/04 09:51:15;;;;;;;12.30;4.60;;;;;;;30.69;30.36;100908.70;105972;1262;64686;-89
2023/10/04 09:53:43;;;;;;;15.20;5.10;;;;;;;30.77;30.19;100913.83;106551;1263;61362;-88
2023/10/04 09:56:12;;;;;;;12.70;4.40;;;;;;;30.80;29.97;100917.84;105984;1263;61336;-89
2023/10/04 09:58:49;;;;;;;14.70;4.10;;;;;;;30.88;30.09;100911.33;105756;1266;67697;-89
2023/10/04 10:01:19;;;;;;;10.30;4.40;;;;;;;31.02;30.04;100909.59;105985;1263;62226;-88
2023/10/04 10:04:02;;;;;;;13.00;4.90;;;;;;;31.13;29.52;100908.41;105990;1263;66215;-89
2023/10/04 10:06:33;;;;;;;11.60;4.70;;;;;;;31.03;29.40;100914.34;106609;1261;61218;-88
2023/10/04 10:09:03;;;;;;;15.80;5.00;;;;;;;30.89;29.72;100911.31;105922;1263;61359;-89
2023/10/04 10:11:32;;;;;;;13.50;4.90;;;;;;;30.93;30.09;100908.73;106053;1263;67799;-88
2023/10/04 10:14:03;;;;;;;11.70;4.70;;;;;;;31.05;30.08;100906.27;106060;1263;61080;-89
2023/10/04 10:16:33;;;;;;;15.10;4.90;;;;;;;31.18;29.81;100909.77;106593;1260;65830;-89
2023/10/04 10:19:03;;;;;;;12.20;4.90;;;;;;;31.21;29.47;100912.65;105891;1264;61906;-87
2023/10/04 10:22:05;;;;;;;11.80;5.30;;;;;;;31.15;29.37;100911.38;105802;1261;61242;-87
2023/10/04 10:24:34;;;;;;;16.00;5.80;;;;;;;31.03;29.48;100907.00;106108;1257;67991;-89
2023/10/04 10:27:08;;;;;;;13.20;5.00;;;;;;;30.92;29.77;100907.29;106379;1266;61251;-90
2023/10/04 10:29:39;;;;;;;17.40;4.90;;;;;;;30.92;30.00;100905.27;106639;1262;64733;-88
2023/10/04 10:32:23;;;;;;;12.10;4.70;;;;;;;30.94;29.98;100905.59;105883;1263;61259;-88
2023/10/04 10:34:52;;;;;;;13.20;5.20;;;;;;;30.85;30.24;100907.62;106015;1263;61383;-88
2023/10/04 10:37:24;;;;;;;18.00;5.20;;;;;;;30.76;30.35;100905.54;105817;1260;67914;-87
2023/10/04 10:40:07;;;;;;;14.20;5.00;;;;;;;30.72;30.44;100901.51;106413;1261;62227;-88
2023/10/04 10:43:07;;;;;;;12.50;5.00;;;;;;;30.64;30.69;100903.79;105810;1263;64851;-88
2023/10/04 10:45:35;;;;;;;13.10;4.90;;;;;;;30.54;30.63;100903.08;105902;1261;61314;-89
2023/10/04 10:48:08;;;;;;;11.70;4.80;;;;;;;30.48;30.53;100903.02;105961;1263;61377;-88
2023/10/04 10:50:37;;;;;;;14.70;4.90;;;;;;;30.47;30.94;100901.80;106123;1263;67614;-87
2023/10/04 10:53:10;;;;;;;18.90;5.30;;;;;;;30.48;30.90;100898.98;106140;1259;61340;-87
2023/10/04 10:55:39;;;;;;;17.10;5.50;;;;;;;30.53;30.94;100898.66;106471;1264;65896;-88
2023/10/04 10:58:10;;;;;;;17.70;5.30;;;;;;;30.64;30.83;100893.95;106168;1263;61413;-87
2023/10/04 11:00:39;;;;;;;16.30;5.50;;;;;;;30.73;30.73;100898.20;105950;1261;61144;-88
2023/10/04 11:03:09;;;;;;;16.40;5.50;;;;;;;30.66;30.31;100892.19;106195;1263;69418;-87
2023/10/04 11:05:37;;;;;;;26.50;6.30;;;;;;;30.52;30.46;100893.98;106037;1264;61709;-88
2023/10/04 11:08:12;;;;;;;16.70;5.40;;;;;;;30.43;30.65;100896.01;107125;1261;66302;-87
2023/10/04 11:10:41;;;;;;;15.50;5.40;;;;;;;30.43;30.64;100891.58;106092;1263;61243;-87
2023/10/04 11:13:14;;;;;;;17.30;5.50;;;;;;;30.43;30.91;100893.11;105943;1264;61170;-87
2023/10/04 11:15:43;;;;;;;11.90;5.00;;;;;;;30.50;31.14;100895.76;106158;1261;67642;-87
2023/10/04 11:18:14;;;;;;;16.50;5.40;;;;;;;30.52;31.21;100897.52;105956;1260;61577;-87
2023/10/04 11:20:42;;;;;;;15.90;5.80;;;;;;;30.54;30.95;100900.10;106799;1261;66021;-88
2023/10/04 11:23:10;;;;;;;13.90;5.10;;;;;;;30.53;30.85;100902.77;105793;1264;61246;-88